Аэропорт: Гянджа. Гянджа

ICAO: UBBG

METAR:
2019/03/24 18:00
UBBG 241800Z 29018KT 9999 BKN067 07/M02 Q1013 R30/CLRD// NOSIG 
METAR:
2019/03/24 18:00
TAF UBBG 241700Z 2418/2518 28012KT 9999 SCT040 BKN080 TX08/2512Z TN03/2503Z 
      BECMG 2422/2424 VRB04KT 
      BECMG 2509/2511 08010KT SCT020 BKN050 
      TEMPO 2511/2518 11018KT -RA OVC030